sensor_id;sensor_type;location;lat;lon;timestamp;P1;durP1;ratioP1;P2;durP2;ratioP2
63312;SDS011;49442;45.640;13.812;2023-03-01T00:01:00;6.25;;;4.72;;
63312;SDS011;49442;45.640;13.812;2023-03-01T00:03:30;7.50;;;5.30;;
63312;SDS011;49442;45.640;13.812;2023-03-01T00:05:56;7.95;;;5.05;;
63312;SDS011;49442;45.640;13.812;2023-03-01T00:08:22;5.78;;;5.05;;
63312;SDS011;49442;45.640;13.812;2023-03-01T00:10:48;5.75;;;4.95;;
63312;SDS011;49442;45.640;13.812;2023-03-01T00:13:14;6.47;;;4.88;;
63312;SDS011;49442;45.640;13.812;2023-03-01T00:15:40;7.47;;;5.28;;
63312;SDS011;49442;45.640;13.812;2023-03-01T00:18:08;7.25;;;5.22;;
63312;SDS011;49442;45.640;13.812;2023-03-01T00:20:34;5.80;;;4.85;;
63312;SDS011;49442;45.640;13.812;2023-03-01T00:23:00;6.50;;;5.40;;
63312;SDS011;49442;45.640;13.812;2023-03-01T00:25:26;5.35;;;4.85;;
63312;SDS011;49442;45.640;13.812;2023-03-01T00:27:51;7.18;;;5.45;;
63312;SDS011;49442;45.640;13.812;2023-03-01T00:30:17;7.05;;;5.50;;
63312;SDS011;49442;45.640;13.812;2023-03-01T00:32:43;6.32;;;4.75;;
63312;SDS011;49442;45.640;13.812;2023-03-01T00:35:08;5.85;;;5.05;;
63312;SDS011;49442;45.640;13.812;2023-03-01T00:37:34;7.03;;;4.75;;
63312;SDS011;49442;45.640;13.812;2023-03-01T00:40:00;7.28;;;5.10;;
63312;SDS011;49442;45.640;13.812;2023-03-01T00:42:25;7.47;;;5.72;;
63312;SDS011;49442;45.640;13.812;2023-03-01T00:44:51;7.10;;;5.10;;
63312;SDS011;49442;45.640;13.812;2023-03-01T00:47:16;6.13;;;5.25;;
63312;SDS011;49442;45.640;13.812;2023-03-01T00:49:42;7.07;;;5.70;;
63312;SDS011;49442;45.640;13.812;2023-03-01T00:52:08;8.60;;;5.70;;
63312;SDS011;49442;45.640;13.812;2023-03-01T00:54:33;6.05;;;5.45;;
63312;SDS011;49442;45.640;13.812;2023-03-01T00:56:59;6.80;;;5.60;;
63312;SDS011;49442;45.640;13.812;2023-03-01T00:59:25;6.30;;;5.10;;
63312;SDS011;49442;45.640;13.812;2023-03-01T01:01:50;6.03;;;5.38;;
63312;SDS011;49442;45.640;13.812;2023-03-01T01:04:16;7.30;;;5.50;;
63312;SDS011;49442;45.640;13.812;2023-03-01T01:06:43;6.22;;;4.95;;
63312;SDS011;49442;45.640;13.812;2023-03-01T01:09:11;7.93;;;5.53;;
63312;SDS011;49442;45.640;13.812;2023-03-01T01:11:42;8.00;;;6.03;;
63312;SDS011;49442;45.640;13.812;2023-03-01T01:14:12;7.78;;;5.22;;
63312;SDS011;49442;45.640;13.812;2023-03-01T01:16:38;7.15;;;5.40;;
63312;SDS011;49442;45.640;13.812;2023-03-01T01:19:04;7.75;;;5.70;;
63312;SDS011;49442;45.640;13.812;2023-03-01T01:21:30;6.95;;;4.90;;
63312;SDS011;49442;45.640;13.812;2023-03-01T01:23:55;8.00;;;6.32;;
63312;SDS011;49442;45.640;13.812;2023-03-01T01:26:23;7.47;;;5.00;;
63312;SDS011;49442;45.640;13.812;2023-03-01T01:28:54;6.93;;;5.60;;
63312;SDS011;49442;45.640;13.812;2023-03-01T01:31:20;6.95;;;4.93;;
63312;SDS011;49442;45.640;13.812;2023-03-01T01:33:48;6.25;;;5.30;;
63312;SDS011;49442;45.640;13.812;2023-03-01T01:36:14;6.22;;;5.40;;
63312;SDS011;49442;45.640;13.812;2023-03-01T01:38:41;6.15;;;5.28;;
63312;SDS011;49442;45.640;13.812;2023-03-01T01:41:07;5.88;;;5.22;;
63312;SDS011;49442;45.640;13.812;2023-03-01T01:43:37;6.20;;;5.10;;
63312;SDS011;49442;45.640;13.812;2023-03-01T01:49:38;6.38;;;5.00;;
63312;SDS011;49442;45.640;13.812;2023-03-01T01:52:09;6.10;;;5.22;;
63312;SDS011;49442;45.640;13.812;2023-03-01T01:57:37;7.47;;;5.53;;
63312;SDS011;49442;45.640;13.812;2023-03-01T02:00:09;7.32;;;5.45;;
63312;SDS011;49442;45.640;13.812;2023-03-01T02:02:40;7.53;;;5.80;;
63312;SDS011;49442;45.640;13.812;2023-03-01T02:05:19;7.38;;;5.57;;
63312;SDS011;49442;45.640;13.812;2023-03-01T02:08:04;6.95;;;5.43;;
63312;SDS011;49442;45.640;13.812;2023-03-01T02:10:32;6.97;;;5.47;;
63312;SDS011;49442;45.640;13.812;2023-03-01T02:13:00;6.68;;;5.38;;
63312;SDS011;49442;45.640;13.812;2023-03-01T02:15:27;6.47;;;5.18;;
63312;SDS011;49442;45.640;13.812;2023-03-01T02:17:57;7.57;;;5.05;;
63312;SDS011;49442;45.640;13.812;2023-03-01T02:20:53;6.97;;;5.40;;
63312;SDS011;49442;45.640;13.812;2023-03-01T02:23:10;7.32;;;5.25;;
63312;SDS011;49442;45.640;13.812;2023-03-01T02:28:23;5.97;;;5.25;;
63312;SDS011;49442;45.640;13.812;2023-03-01T02:31:08;5.20;;;4.70;;
63312;SDS011;49442;45.640;13.812;2023-03-01T02:33:54;12.73;;;5.20;;
63312;SDS011;49442;45.640;13.812;2023-03-01T02:37:04;6.47;;;5.13;;
63312;SDS011;49442;45.640;13.812;2023-03-01T02:39:10;6.95;;;5.28;;
63312;SDS011;49442;45.640;13.812;2023-03-01T02:41:47;6.75;;;5.60;;
63312;SDS011;49442;45.640;13.812;2023-03-01T02:44:15;9.75;;;5.47;;
63312;SDS011;49442;45.640;13.812;2023-03-01T02:46:42;7.15;;;5.57;;
63312;SDS011;49442;45.640;13.812;2023-03-01T02:49:17;6.90;;;4.85;;
63312;SDS011;49442;45.640;13.812;2023-03-01T02:51:54;6.47;;;5.32;;
63312;SDS011;49442;45.640;13.812;2023-03-01T02:54:48;6.57;;;5.25;;
63312;SDS011;49442;45.640;13.812;2023-03-01T02:59:41;8.05;;;5.20;;
63312;SDS011;49442;45.640;13.812;2023-03-01T03:02:18;7.43;;;5.07;;
63312;SDS011;49442;45.640;13.812;2023-03-01T03:04:47;6.35;;;4.65;;
63312;SDS011;49442;45.640;13.812;2023-03-01T03:07:12;5.45;;;4.38;;
63312;SDS011;49442;45.640;13.812;2023-03-01T03:09:39;6.28;;;5.03;;
63312;SDS011;49442;45.640;13.812;2023-03-01T03:12:04;6.50;;;4.78;;
63312;SDS011;49442;45.640;13.812;2023-03-01T03:14:30;6.70;;;5.28;;
63312;SDS011;49442;45.640;13.812;2023-03-01T03:16:59;7.78;;;5.60;;
63312;SDS011;49442;45.640;13.812;2023-03-01T03:19:25;5.35;;;4.80;;
63312;SDS011;49442;45.640;13.812;2023-03-01T03:21:51;7.53;;;5.53;;
63312;SDS011;49442;45.640;13.812;2023-03-01T03:24:17;5.88;;;5.07;;
63312;SDS011;49442;45.640;13.812;2023-03-01T03:26:43;8.80;;;5.50;;
63312;SDS011;49442;45.640;13.812;2023-03-01T03:29:08;5.75;;;4.50;;
63312;SDS011;49442;45.640;13.812;2023-03-01T03:31:34;6.28;;;5.30;;
63312;SDS011;49442;45.640;13.812;2023-03-01T03:34:00;5.57;;;4.75;;
63312;SDS011;49442;45.640;13.812;2023-03-01T03:36:25;6.45;;;4.88;;
63312;SDS011;49442;45.640;13.812;2023-03-01T03:38:51;7.18;;;4.68;;
63312;SDS011;49442;45.640;13.812;2023-03-01T03:41:17;5.85;;;4.93;;
63312;SDS011;49442;45.640;13.812;2023-03-01T03:43:43;8.32;;;4.97;;
63312;SDS011;49442;45.640;13.812;2023-03-01T03:46:09;6.40;;;5.13;;
63312;SDS011;49442;45.640;13.812;2023-03-01T03:48:43;5.90;;;5.28;;
63312;SDS011;49442;45.640;13.812;2023-03-01T03:51:10;5.72;;;4.75;;
63312;SDS011;49442;45.640;13.812;2023-03-01T03:53:37;5.70;;;5.10;;
63312;SDS011;49442;45.640;13.812;2023-03-01T03:56:03;6.88;;;4.70;;
63312;SDS011;49442;45.640;13.812;2023-03-01T03:58:28;6.60;;;5.45;;
63312;SDS011;49442;45.640;13.812;2023-03-01T04:00:55;7.90;;;5.03;;
63312;SDS011;49442;45.640;13.812;2023-03-01T04:03:22;6.10;;;5.18;;
63312;SDS011;49442;45.640;13.812;2023-03-01T04:05:49;6.75;;;5.35;;
63312;SDS011;49442;45.640;13.812;2023-03-01T04:08:17;5.57;;;4.93;;
63312;SDS011;49442;45.640;13.812;2023-03-01T04:10:46;6.07;;;5.15;;
63312;SDS011;49442;45.640;13.812;2023-03-01T04:13:15;6.75;;;5.40;;
63312;SDS011;49442;45.640;13.812;2023-03-01T04:15:42;5.97;;;5.05;;
63312;SDS011;49442;45.640;13.812;2023-03-01T04:18:08;5.70;;;4.80;;
63312;SDS011;49442;45.640;13.812;2023-03-01T04:20:36;6.50;;;5.05;;
63312;SDS011;49442;45.640;13.812;2023-03-01T04:25:42;7.35;;;5.22;;
63312;SDS011;49442;45.640;13.812;2023-03-01T04:28:20;6.28;;;5.25;;
63312;SDS011;49442;45.640;13.812;2023-03-01T04:30:46;5.53;;;4.55;;
63312;SDS011;49442;45.640;13.812;2023-03-01T04:33:12;6.50;;;4.65;;
63312;SDS011;49442;45.640;13.812;2023-03-01T04:35:38;6.65;;;5.13;;
63312;SDS011;49442;45.640;13.812;2023-03-01T04:38:05;6.15;;;4.88;;
63312;SDS011;49442;45.640;13.812;2023-03-01T04:40:31;7.90;;;5.38;;
63312;SDS011;49442;45.640;13.812;2023-03-01T04:42:57;6.15;;;5.18;;
63312;SDS011;49442;45.640;13.812;2023-03-01T04:45:23;6.50;;;4.90;;
63312;SDS011;49442;45.640;13.812;2023-03-01T04:47:49;6.95;;;4.90;;
63312;SDS011;49442;45.640;13.812;2023-03-01T04:50:17;6.57;;;5.10;;
63312;SDS011;49442;45.640;13.812;2023-03-01T04:52:48;5.22;;;4.30;;
63312;SDS011;49442;45.640;13.812;2023-03-01T04:55:14;4.65;;;4.13;;
63312;SDS011;49442;45.640;13.812;2023-03-01T04:57:40;7.00;;;5.28;;
63312;SDS011;49442;45.640;13.812;2023-03-01T05:00:07;5.45;;;4.85;;
63312;SDS011;49442;45.640;13.812;2023-03-01T05:05:39;6.43;;;4.63;;
63312;SDS011;49442;45.640;13.812;2023-03-01T05:08:07;5.07;;;4.50;;
63312;SDS011;49442;45.640;13.812;2023-03-01T05:10:34;5.95;;;5.07;;
63312;SDS011;49442;45.640;13.812;2023-03-01T05:13:01;5.05;;;4.55;;
63312;SDS011;49442;45.640;13.812;2023-03-01T05:15:29;6.35;;;5.43;;
63312;SDS011;49442;45.640;13.812;2023-03-01T05:17:56;5.85;;;4.40;;
63312;SDS011;49442;45.640;13.812;2023-03-01T05:20:24;9.13;;;5.03;;
63312;SDS011;49442;45.640;13.812;2023-03-01T05:22:56;7.65;;;5.05;;
63312;SDS011;49442;45.640;13.812;2023-03-01T05:25:23;6.45;;;4.72;;
63312;SDS011;49442;45.640;13.812;2023-03-01T05:27:49;6.70;;;5.40;;
63312;SDS011;49442;45.640;13.812;2023-03-01T05:30:15;4.75;;;4.20;;
63312;SDS011;49442;45.640;13.812;2023-03-01T05:32:43;6.13;;;5.30;;
63312;SDS011;49442;45.640;13.812;2023-03-01T05:35:10;7.82;;;4.93;;
63312;SDS011;49442;45.640;13.812;2023-03-01T05:37:41;5.43;;;4.93;;
63312;SDS011;49442;45.640;13.812;2023-03-01T05:40:08;8.02;;;5.10;;
63312;SDS011;49442;45.640;13.812;2023-03-01T05:42:40;6.38;;;5.03;;
63312;SDS011;49442;45.640;13.812;2023-03-01T05:45:10;6.03;;;4.70;;
63312;SDS011;49442;45.640;13.812;2023-03-01T05:47:37;7.00;;;5.15;;
63312;SDS011;49442;45.640;13.812;2023-03-01T05:50:08;7.20;;;4.93;;
63312;SDS011;49442;45.640;13.812;2023-03-01T05:52:52;5.47;;;4.63;;
63312;SDS011;49442;45.640;13.812;2023-03-01T05:55:22;6.40;;;5.35;;
63312;SDS011;49442;45.640;13.812;2023-03-01T05:57:48;5.43;;;4.60;;
63312;SDS011;49442;45.640;13.812;2023-03-01T06:00:15;6.78;;;4.85;;
63312;SDS011;49442;45.640;13.812;2023-03-01T06:02:43;5.28;;;4.55;;
63312;SDS011;49442;45.640;13.812;2023-03-01T06:05:09;5.13;;;4.57;;
63312;SDS011;49442;45.640;13.812;2023-03-01T06:07:36;6.30;;;5.60;;
63312;SDS011;49442;45.640;13.812;2023-03-01T06:10:03;6.82;;;4.80;;
63312;SDS011;49442;45.640;13.812;2023-03-01T06:12:32;9.20;;;4.75;;
63312;SDS011;49442;45.640;13.812;2023-03-01T06:14:59;10.57;;;5.10;;
63312;SDS011;49442;45.640;13.812;2023-03-01T06:17:25;7.40;;;5.10;;
63312;SDS011;49442;45.640;13.812;2023-03-01T06:19:51;6.07;;;5.07;;
63312;SDS011;49442;45.640;13.812;2023-03-01T06:22:17;6.35;;;4.63;;
63312;SDS011;49442;45.640;13.812;2023-03-01T06:24:42;5.43;;;4.47;;
63312;SDS011;49442;45.640;13.812;2023-03-01T06:27:08;6.80;;;4.93;;
63312;SDS011;49442;45.640;13.812;2023-03-01T06:29:33;7.15;;;5.25;;
63312;SDS011;49442;45.640;13.812;2023-03-01T06:31:59;6.03;;;4.78;;
63312;SDS011;49442;45.640;13.812;2023-03-01T06:34:25;6.43;;;5.28;;
63312;SDS011;49442;45.640;13.812;2023-03-01T06:36:50;6.00;;;4.63;;
63312;SDS011;49442;45.640;13.812;2023-03-01T06:39:16;5.65;;;4.68;;
63312;SDS011;49442;45.640;13.812;2023-03-01T06:41:42;5.45;;;4.40;;
63312;SDS011;49442;45.640;13.812;2023-03-01T06:44:08;6.88;;;5.03;;
63312;SDS011;49442;45.640;13.812;2023-03-01T06:46:34;6.10;;;4.55;;
63312;SDS011;49442;45.640;13.812;2023-03-01T06:49:00;7.55;;;5.28;;
63312;SDS011;49442;45.640;13.812;2023-03-01T06:51:25;5.65;;;4.70;;
63312;SDS011;49442;45.640;13.812;2023-03-01T06:53:51;6.07;;;4.78;;
63312;SDS011;49442;45.640;13.812;2023-03-01T06:56:16;5.28;;;4.03;;
63312;SDS011;49442;45.640;13.812;2023-03-01T06:58:42;6.13;;;4.82;;
63312;SDS011;49442;45.640;13.812;2023-03-01T07:01:08;7.53;;;5.30;;
63312;SDS011;49442;45.640;13.812;2023-03-01T07:03:34;4.80;;;4.30;;
63312;SDS011;49442;45.640;13.812;2023-03-01T07:06:00;5.50;;;4.53;;
63312;SDS011;49442;45.640;13.812;2023-03-01T07:08:25;7.50;;;4.68;;
63312;SDS011;49442;45.640;13.812;2023-03-01T07:10:55;6.43;;;5.43;;
63312;SDS011;49442;45.640;13.812;2023-03-01T07:13:21;7.43;;;5.50;;
63312;SDS011;49442;45.640;13.812;2023-03-01T07:15:47;9.10;;;7.55;;
63312;SDS011;49442;45.640;13.812;2023-03-01T07:18:13;7.55;;;6.72;;
63312;SDS011;49442;45.640;13.812;2023-03-01T07:20:38;6.45;;;5.40;;
63312;SDS011;49442;45.640;13.812;2023-03-01T07:23:05;12.32;;;5.85;;
63312;SDS011;49442;45.640;13.812;2023-03-01T07:25:31;6.60;;;5.75;;
63312;SDS011;49442;45.640;13.812;2023-03-01T07:27:57;8.10;;;5.82;;
63312;SDS011;49442;45.640;13.812;2023-03-01T07:30:23;6.97;;;5.47;;
63312;SDS011;49442;45.640;13.812;2023-03-01T07:32:51;6.30;;;5.38;;
63312;SDS011;49442;45.640;13.812;2023-03-01T07:35:16;6.53;;;5.25;;
63312;SDS011;49442;45.640;13.812;2023-03-01T07:37:42;10.00;;;5.85;;
63312;SDS011;49442;45.640;13.812;2023-03-01T07:40:10;7.57;;;5.50;;
63312;SDS011;49442;45.640;13.812;2023-03-01T07:42:36;7.03;;;5.20;;
63312;SDS011;49442;45.640;13.812;2023-03-01T07:45:02;10.80;;;5.82;;
63312;SDS011;49442;45.640;13.812;2023-03-01T07:47:29;8.25;;;5.65;;
63312;SDS011;49442;45.640;13.812;2023-03-01T07:49:54;8.27;;;6.05;;
63312;SDS011;49442;45.640;13.812;2023-03-01T07:52:20;10.50;;;6.00;;
63312;SDS011;49442;45.640;13.812;2023-03-01T07:54:45;11.80;;;6.10;;
63312;SDS011;49442;45.640;13.812;2023-03-01T07:57:11;11.48;;;5.90;;
63312;SDS011;49442;45.640;13.812;2023-03-01T07:59:37;9.02;;;5.78;;
63312;SDS011;49442;45.640;13.812;2023-03-01T08:02:03;9.52;;;5.57;;
63312;SDS011;49442;45.640;13.812;2023-03-01T08:04:28;9.00;;;6.57;;
63312;SDS011;49442;45.640;13.812;2023-03-01T08:06:54;8.80;;;5.53;;
63312;SDS011;49442;45.640;13.812;2023-03-01T08:09:20;8.40;;;5.97;;
63312;SDS011;49442;45.640;13.812;2023-03-01T08:11:46;9.40;;;6.20;;
63312;SDS011;49442;45.640;13.812;2023-03-01T08:14:12;9.32;;;5.32;;
63312;SDS011;49442;45.640;13.812;2023-03-01T08:16:37;7.88;;;5.32;;
63312;SDS011;49442;45.640;13.812;2023-03-01T08:19:07;6.45;;;5.63;;
63312;SDS011;49442;45.640;13.812;2023-03-01T08:21:34;9.55;;;6.07;;
63312;SDS011;49442;45.640;13.812;2023-03-01T08:24:03;9.10;;;5.35;;
63312;SDS011;49442;45.640;13.812;2023-03-01T08:26:30;10.88;;;5.90;;
63312;SDS011;49442;45.640;13.812;2023-03-01T08:28:56;7.30;;;4.85;;
63312;SDS011;49442;45.640;13.812;2023-03-01T08:31:26;8.15;;;5.13;;
63312;SDS011;49442;45.640;13.812;2023-03-01T08:33:55;10.35;;;5.30;;
63312;SDS011;49442;45.640;13.812;2023-03-01T08:36:26;5.95;;;4.80;;
63312;SDS011;49442;45.640;13.812;2023-03-01T08:38:56;8.00;;;5.55;;
63312;SDS011;49442;45.640;13.812;2023-03-01T08:41:22;6.97;;;4.90;;
63312;SDS011;49442;45.640;13.812;2023-03-01T08:43:48;6.70;;;4.90;;
63312;SDS011;49442;45.640;13.812;2023-03-01T08:46:14;11.48;;;5.10;;
63312;SDS011;49442;45.640;13.812;2023-03-01T08:48:40;7.07;;;5.13;;
63312;SDS011;49442;45.640;13.812;2023-03-01T08:51:18;7.03;;;5.85;;
63312;SDS011;49442;45.640;13.812;2023-03-01T08:53:45;9.38;;;5.15;;
63312;SDS011;49442;45.640;13.812;2023-03-01T08:56:11;5.43;;;4.38;;
63312;SDS011;49442;45.640;13.812;2023-03-01T08:58:38;6.35;;;5.32;;
63312;SDS011;49442;45.640;13.812;2023-03-01T09:01:11;6.43;;;4.80;;
63312;SDS011;49442;45.640;13.812;2023-03-01T09:03:39;6.60;;;4.90;;
63312;SDS011;49442;45.640;13.812;2023-03-01T09:06:05;7.07;;;4.53;;
63312;SDS011;49442;45.640;13.812;2023-03-01T09:08:39;7.03;;;4.57;;
63312;SDS011;49442;45.640;13.812;2023-03-01T09:11:06;7.65;;;4.60;;
63312;SDS011;49442;45.640;13.812;2023-03-01T09:13:34;8.77;;;4.60;;
63312;SDS011;49442;45.640;13.812;2023-03-01T09:16:01;7.00;;;4.63;;
63312;SDS011;49442;45.640;13.812;2023-03-01T09:18:28;9.98;;;5.00;;
63312;SDS011;49442;45.640;13.812;2023-03-01T09:21:01;6.43;;;4.00;;
63312;SDS011;49442;45.640;13.812;2023-03-01T09:23:27;5.53;;;4.05;;
63312;SDS011;49442;45.640;13.812;2023-03-01T09:25:52;6.25;;;4.60;;
63312;SDS011;49442;45.640;13.812;2023-03-01T09:28:18;7.60;;;4.38;;
63312;SDS011;49442;45.640;13.812;2023-03-01T09:30:43;9.10;;;4.75;;
63312;SDS011;49442;45.640;13.812;2023-03-01T09:33:09;6.28;;;4.63;;
63312;SDS011;49442;45.640;13.812;2023-03-01T09:35:39;12.02;;;4.47;;
63312;SDS011;49442;45.640;13.812;2023-03-01T09:40:41;8.27;;;3.78;;
63312;SDS011;49442;45.640;13.812;2023-03-01T09:43:12;13.65;;;4.78;;
63312;SDS011;49442;45.640;13.812;2023-03-01T09:45:45;15.38;;;5.10;;
63312;SDS011;49442;45.640;13.812;2023-03-01T09:48:19;29.00;;;5.07;;
63312;SDS011;49442;45.640;13.812;2023-03-01T09:50:48;21.27;;;4.32;;
63312;SDS011;49442;45.640;13.812;2023-03-01T09:53:21;19.30;;;4.28;;
63312;SDS011;49442;45.640;13.812;2023-03-01T09:55:54;10.98;;;4.53;;
63312;SDS011;49442;45.640;13.812;2023-03-01T09:58:28;16.00;;;6.00;;
63312;SDS011;49442;45.640;13.812;2023-03-01T10:01:10;18.02;;;5.15;;
63312;SDS011;49442;45.640;13.812;2023-03-01T10:03:43;21.02;;;5.32;;
63312;SDS011;49442;45.640;13.812;2023-03-01T10:06:23;26.50;;;5.30;;
63312;SDS011;49442;45.640;13.812;2023-03-01T10:08:58;17.90;;;5.18;;
63312;SDS011;49442;45.640;13.812;2023-03-01T10:11:39;15.90;;;5.35;;
63312;SDS011;49442;45.640;13.812;2023-03-01T10:19:46;18.63;;;5.10;;
63312;SDS011;49442;45.640;13.812;2023-03-01T10:22:16;15.68;;;4.65;;
63312;SDS011;49442;45.640;13.812;2023-03-01T10:24:43;18.40;;;5.13;;
63312;SDS011;49442;45.640;13.812;2023-03-01T10:29:50;13.75;;;4.88;;
63312;SDS011;49442;45.640;13.812;2023-03-01T10:32:26;14.60;;;4.95;;
63312;SDS011;49442;45.640;13.812;2023-03-01T10:34:52;12.13;;;4.80;;
63312;SDS011;49442;45.640;13.812;2023-03-01T10:37:18;13.30;;;4.38;;
63312;SDS011;49442;45.640;13.812;2023-03-01T10:42:33;12.50;;;4.35;;
63312;SDS011;49442;45.640;13.812;2023-03-01T10:47:47;14.68;;;4.50;;
63312;SDS011;49442;45.640;13.812;2023-03-01T10:50:36;10.85;;;4.45;;
63312;SDS011;49442;45.640;13.812;2023-03-01T10:53:04;9.60;;;4.63;;
63312;SDS011;49442;45.640;13.812;2023-03-01T10:55:40;10.82;;;4.03;;
63312;SDS011;49442;45.640;13.812;2023-03-01T10:58:27;8.95;;;4.55;;
63312;SDS011;49442;45.640;13.812;2023-03-01T11:00:56;12.20;;;4.07;;
63312;SDS011;49442;45.640;13.812;2023-03-01T11:03:25;7.95;;;3.90;;
63312;SDS011;49442;45.640;13.812;2023-03-01T11:08:32;8.52;;;4.15;;
63312;SDS011;49442;45.640;13.812;2023-03-01T11:13:34;8.30;;;3.92;;
63312;SDS011;49442;45.640;13.812;2023-03-01T11:16:01;6.00;;;3.78;;
63312;SDS011;49442;45.640;13.812;2023-03-01T11:18:31;7.32;;;3.60;;
63312;SDS011;49442;45.640;13.812;2023-03-01T11:20:57;7.53;;;3.70;;
63312;SDS011;49442;45.640;13.812;2023-03-01T11:23:25;8.00;;;3.83;;
63312;SDS011;49442;45.640;13.812;2023-03-01T11:25:56;8.40;;;3.53;;
63312;SDS011;49442;45.640;13.812;2023-03-01T11:28:29;5.00;;;3.70;;
63312;SDS011;49442;45.640;13.812;2023-03-01T11:39:11;7.88;;;3.80;;
63312;SDS011;49442;45.640;13.812;2023-03-01T11:41:52;5.45;;;3.40;;
63312;SDS011;49442;45.640;13.812;2023-03-01T11:44:27;4.68;;;3.53;;
63312;SDS011;49442;45.640;13.812;2023-03-01T11:52:01;6.57;;;3.72;;
63312;SDS011;49442;45.640;13.812;2023-03-01T14:07:38;7.18;;;2.35;;
63312;SDS011;49442;45.640;13.812;2023-03-01T14:10:06;4.50;;;2.10;;
63312;SDS011;49442;45.640;13.812;2023-03-01T14:12:55;4.07;;;2.15;;
63312;SDS011;49442;45.640;13.812;2023-03-01T14:15:46;5.05;;;2.22;;
63312;SDS011;49442;45.640;13.812;2023-03-01T14:18:26;3.67;;;2.55;;
63312;SDS011;49442;45.640;13.812;2023-03-01T14:21:01;4.35;;;2.40;;
63312;SDS011;49442;45.640;13.812;2023-03-01T14:23:33;2.47;;;1.80;;
63312;SDS011;49442;45.640;13.812;2023-03-01T14:26:00;8.13;;;2.25;;
63312;SDS011;49442;45.640;13.812;2023-03-01T14:28:27;4.20;;;2.00;;
63312;SDS011;49442;45.640;13.812;2023-03-01T14:30:55;5.53;;;2.13;;
63312;SDS011;49442;45.640;13.812;2023-03-01T14:41:16;5.45;;;2.00;;
63312;SDS011;49442;45.640;13.812;2023-03-01T14:43:54;3.13;;;1.88;;
63312;SDS011;49442;45.640;13.812;2023-03-01T14:46:30;3.17;;;1.90;;
63312;SDS011;49442;45.640;13.812;2023-03-01T14:49:02;4.22;;;1.77;;
63312;SDS011;49442;45.640;13.812;2023-03-01T14:51:35;3.88;;;1.60;;
63312;SDS011;49442;45.640;13.812;2023-03-01T14:54:03;3.63;;;1.60;;
63312;SDS011;49442;45.640;13.812;2023-03-01T14:56:51;4.88;;;1.70;;
63312;SDS011;49442;45.640;13.812;2023-03-01T14:59:21;2.92;;;1.75;;
63312;SDS011;49442;45.640;13.812;2023-03-01T15:01:48;3.55;;;2.17;;
63312;SDS011;49442;45.640;13.812;2023-03-01T15:04:19;4.45;;;1.58;;
63312;SDS011;49442;45.640;13.812;2023-03-01T15:06:47;3.40;;;2.03;;
63312;SDS011;49442;45.640;13.812;2023-03-01T15:09:16;4.22;;;1.98;;
63312;SDS011;49442;45.640;13.812;2023-03-01T15:11:43;2.53;;;1.52;;
63312;SDS011;49442;45.640;13.812;2023-03-01T15:14:25;10.45;;;2.30;;
63312;SDS011;49442;45.640;13.812;2023-03-01T15:17:03;2.10;;;1.70;;
63312;SDS011;49442;45.640;13.812;2023-03-01T15:19:29;3.50;;;1.60;;
63312;SDS011;49442;45.640;13.812;2023-03-01T15:21:55;3.92;;;1.63;;
63312;SDS011;49442;45.640;13.812;2023-03-01T15:24:24;3.45;;;1.63;;
63312;SDS011;49442;45.640;13.812;2023-03-01T15:26:56;4.53;;;1.90;;
63312;SDS011;49442;45.640;13.812;2023-03-01T15:29:32;1.95;;;1.40;;
63312;SDS011;49442;45.640;13.812;2023-03-01T15:34:31;5.05;;;1.63;;
63312;SDS011;49442;45.640;13.812;2023-03-01T15:36:59;2.65;;;1.20;;
63312;SDS011;49442;45.640;13.812;2023-03-01T15:39:33;2.15;;;1.55;;
63312;SDS011;49442;45.640;13.812;2023-03-01T15:42:03;3.75;;;1.17;;
63312;SDS011;49442;45.640;13.812;2023-03-01T15:45:07;4.78;;;1.50;;
63312;SDS011;49442;45.640;13.812;2023-03-01T15:47:33;3.00;;;1.50;;
63312;SDS011;49442;45.640;13.812;2023-03-01T15:50:00;2.17;;;1.35;;
63312;SDS011;49442;45.640;13.812;2023-03-01T15:52:28;2.17;;;1.17;;
63312;SDS011;49442;45.640;13.812;2023-03-01T15:55:03;2.92;;;1.40;;
63312;SDS011;49442;45.640;13.812;2023-03-01T15:57:30;2.20;;;1.20;;
63312;SDS011;49442;45.640;13.812;2023-03-01T15:59:56;1.52;;;1.27;;
63312;SDS011;49442;45.640;13.812;2023-03-01T16:02:22;1.40;;;1.02;;
63312;SDS011;49442;45.640;13.812;2023-03-01T16:04:49;2.35;;;1.40;;
63312;SDS011;49442;45.640;13.812;2023-03-01T16:07:15;3.10;;;1.25;;
63312;SDS011;49442;45.640;13.812;2023-03-01T16:09:41;1.52;;;1.38;;
63312;SDS011;49442;45.640;13.812;2023-03-01T16:12:12;2.70;;;1.27;;
63312;SDS011;49442;45.640;13.812;2023-03-01T16:14:40;1.25;;;1.15;;
63312;SDS011;49442;45.640;13.812;2023-03-01T16:17:05;2.42;;;1.33;;
63312;SDS011;49442;45.640;13.812;2023-03-01T16:19:33;2.20;;;0.90;;
63312;SDS011;49442;45.640;13.812;2023-03-01T16:21:58;1.40;;;1.30;;
63312;SDS011;49442;45.640;13.812;2023-03-01T16:24:24;1.20;;;1.02;;
63312;SDS011;49442;45.640;13.812;2023-03-01T16:26:50;1.67;;;1.25;;
63312;SDS011;49442;45.640;13.812;2023-03-01T16:29:16;1.20;;;1.08;;
63312;SDS011;49442;45.640;13.812;2023-03-01T16:31:42;1.63;;;1.20;;
63312;SDS011;49442;45.640;13.812;2023-03-01T16:34:08;1.52;;;1.13;;
63312;SDS011;49442;45.640;13.812;2023-03-01T16:36:33;1.52;;;1.08;;
63312;SDS011;49442;45.640;13.812;2023-03-01T16:38:59;1.85;;;1.33;;
63312;SDS011;49442;45.640;13.812;2023-03-01T16:41:25;3.10;;;1.10;;
63312;SDS011;49442;45.640;13.812;2023-03-01T16:43:52;1.10;;;1.00;;
63312;SDS011;49442;45.640;13.812;2023-03-01T16:46:19;2.33;;;1.10;;
63312;SDS011;49442;45.640;13.812;2023-03-01T16:48:47;1.27;;;1.00;;
63312;SDS011;49442;45.640;13.812;2023-03-01T16:51:13;1.55;;;1.23;;
63312;SDS011;49442;45.640;13.812;2023-03-01T16:53:39;3.13;;;0.90;;
63312;SDS011;49442;45.640;13.812;2023-03-01T16:56:06;1.38;;;0.70;;
63312;SDS011;49442;45.640;13.812;2023-03-01T16:58:34;1.00;;;0.90;;
63312;SDS011;49442;45.640;13.812;2023-03-01T17:01:04;1.05;;;0.80;;
63312;SDS011;49442;45.640;13.812;2023-03-01T17:03:31;1.40;;;1.00;;
63312;SDS011;49442;45.640;13.812;2023-03-01T17:06:00;0.98;;;0.80;;
63312;SDS011;49442;45.640;13.812;2023-03-01T17:08:27;1.85;;;1.13;;
63312;SDS011;49442;45.640;13.812;2023-03-01T17:10:52;1.70;;;0.80;;
63312;SDS011;49442;45.640;13.812;2023-03-01T17:13:18;2.05;;;0.95;;
63312;SDS011;49442;45.640;13.812;2023-03-01T17:15:44;0.70;;;0.70;;
63312;SDS011;49442;45.640;13.812;2023-03-01T17:18:09;0.80;;;0.80;;
63312;SDS011;49442;45.640;13.812;2023-03-01T17:20:35;1.45;;;0.98;;
63312;SDS011;49442;45.640;13.812;2023-03-01T17:23:01;3.15;;;0.70;;
63312;SDS011;49442;45.640;13.812;2023-03-01T17:25:27;1.17;;;0.85;;
63312;SDS011;49442;45.640;13.812;2023-03-01T17:27:53;1.42;;;0.80;;
63312;SDS011;49442;45.640;13.812;2023-03-01T17:30:18;0.93;;;0.88;;
63312;SDS011;49442;45.640;13.812;2023-03-01T17:32:44;1.42;;;0.77;;
63312;SDS011;49442;45.640;13.812;2023-03-01T17:35:10;1.40;;;0.60;;
63312;SDS011;49442;45.640;13.812;2023-03-01T17:37:36;1.73;;;1.13;;
63312;SDS011;49442;45.640;13.812;2023-03-01T17:40:03;1.35;;;1.23;;
63312;SDS011;49442;45.640;13.812;2023-03-01T17:42:30;0.90;;;0.75;;
63312;SDS011;49442;45.640;13.812;2023-03-01T17:44:55;1.10;;;0.80;;
63312;SDS011;49442;45.640;13.812;2023-03-01T17:47:21;1.05;;;0.95;;
63312;SDS011;49442;45.640;13.812;2023-03-01T17:49:47;0.80;;;0.63;;
63312;SDS011;49442;45.640;13.812;2023-03-01T17:52:13;1.20;;;0.80;;
63312;SDS011;49442;45.640;13.812;2023-03-01T17:54:38;1.10;;;0.80;;
63312;SDS011;49442;45.640;13.812;2023-03-01T17:57:04;3.22;;;0.70;;